sensor_id;sensor_type;location;lat;lon;timestamp;P1;durP1;ratioP1;P2;durP2;ratioP2
32216;SDS011;67098;51.140;4.088;2023-02-11T00:00:09;21.33;;;4.32;;
32216;SDS011;67098;51.140;4.088;2023-02-11T00:02:35;21.38;;;5.20;;
32216;SDS011;67098;51.140;4.088;2023-02-11T00:05:01;16.50;;;4.07;;
32216;SDS011;67098;51.140;4.088;2023-02-11T00:07:32;17.70;;;4.22;;
32216;SDS011;67098;51.140;4.088;2023-02-11T00:09:59;17.52;;;4.35;;
32216;SDS011;67098;51.140;4.088;2023-02-11T00:12:26;20.38;;;4.90;;
32216;SDS011;67098;51.140;4.088;2023-02-11T00:14:52;22.48;;;4.25;;
32216;SDS011;67098;51.140;4.088;2023-02-11T00:17:18;23.60;;;5.55;;
32216;SDS011;67098;51.140;4.088;2023-02-11T00:19:47;16.35;;;4.53;;
32216;SDS011;67098;51.140;4.088;2023-02-11T00:22:14;22.23;;;5.40;;
32216;SDS011;67098;51.140;4.088;2023-02-11T00:24:40;30.10;;;5.30;;
32216;SDS011;67098;51.140;4.088;2023-02-11T00:27:05;19.17;;;4.07;;
32216;SDS011;67098;51.140;4.088;2023-02-11T00:29:31;18.60;;;4.78;;
32216;SDS011;67098;51.140;4.088;2023-02-11T00:31:56;30.52;;;5.40;;
32216;SDS011;67098;51.140;4.088;2023-02-11T00:34:22;22.33;;;5.15;;
32216;SDS011;67098;51.140;4.088;2023-02-11T00:36:48;20.08;;;5.10;;
32216;SDS011;67098;51.140;4.088;2023-02-11T00:39:14;23.65;;;5.38;;
32216;SDS011;67098;51.140;4.088;2023-02-11T00:41:40;18.40;;;5.00;;
32216;SDS011;67098;51.140;4.088;2023-02-11T00:44:06;20.35;;;4.75;;
32216;SDS011;67098;51.140;4.088;2023-02-11T00:46:32;22.80;;;4.90;;
32216;SDS011;67098;51.140;4.088;2023-02-11T00:48:57;21.85;;;4.28;;
32216;SDS011;67098;51.140;4.088;2023-02-11T00:51:24;18.77;;;5.10;;
32216;SDS011;67098;51.140;4.088;2023-02-11T00:53:50;17.80;;;4.63;;
32216;SDS011;67098;51.140;4.088;2023-02-11T00:56:16;18.42;;;4.60;;
32216;SDS011;67098;51.140;4.088;2023-02-11T00:58:42;15.30;;;4.35;;
32216;SDS011;67098;51.140;4.088;2023-02-11T01:01:08;22.65;;;4.30;;
32216;SDS011;67098;51.140;4.088;2023-02-11T01:03:34;18.38;;;5.10;;
32216;SDS011;67098;51.140;4.088;2023-02-11T01:05:59;17.05;;;5.20;;
32216;SDS011;67098;51.140;4.088;2023-02-11T01:08:25;15.85;;;4.78;;
32216;SDS011;67098;51.140;4.088;2023-02-11T01:10:58;28.40;;;5.63;;
32216;SDS011;67098;51.140;4.088;2023-02-11T01:13:26;18.15;;;5.30;;
32216;SDS011;67098;51.140;4.088;2023-02-11T01:15:53;14.68;;;4.38;;
32216;SDS011;67098;51.140;4.088;2023-02-11T01:18:20;13.98;;;5.70;;
32216;SDS011;67098;51.140;4.088;2023-02-11T01:20:45;24.75;;;6.05;;
32216;SDS011;67098;51.140;4.088;2023-02-11T01:23:11;17.05;;;4.45;;
32216;SDS011;67098;51.140;4.088;2023-02-11T01:25:37;22.25;;;4.80;;
32216;SDS011;67098;51.140;4.088;2023-02-11T01:28:02;19.02;;;4.95;;
32216;SDS011;67098;51.140;4.088;2023-02-11T01:30:28;15.55;;;4.65;;
32216;SDS011;67098;51.140;4.088;2023-02-11T01:32:54;19.27;;;4.65;;
32216;SDS011;67098;51.140;4.088;2023-02-11T01:35:20;22.60;;;5.68;;
32216;SDS011;67098;51.140;4.088;2023-02-11T01:37:45;18.58;;;5.15;;
32216;SDS011;67098;51.140;4.088;2023-02-11T01:40:13;21.52;;;6.25;;
32216;SDS011;67098;51.140;4.088;2023-02-11T01:42:41;18.15;;;4.93;;
32216;SDS011;67098;51.140;4.088;2023-02-11T01:48:16;21.08;;;5.18;;
32216;SDS011;67098;51.140;4.088;2023-02-11T01:50:53;16.67;;;5.40;;
32216;SDS011;67098;51.140;4.088;2023-02-11T01:53:25;23.77;;;7.20;;
32216;SDS011;67098;51.140;4.088;2023-02-11T01:56:10;24.75;;;6.55;;
32216;SDS011;67098;51.140;4.088;2023-02-11T01:58:56;18.40;;;5.65;;
32216;SDS011;67098;51.140;4.088;2023-02-11T02:01:28;20.95;;;5.47;;
32216;SDS011;67098;51.140;4.088;2023-02-11T02:03:58;21.75;;;6.40;;
32216;SDS011;67098;51.140;4.088;2023-02-11T02:09:03;20.92;;;6.43;;
32216;SDS011;67098;51.140;4.088;2023-02-11T02:13:58;16.02;;;6.07;;
32216;SDS011;67098;51.140;4.088;2023-02-11T02:16:25;25.27;;;5.80;;
32216;SDS011;67098;51.140;4.088;2023-02-11T02:24:31;23.10;;;7.00;;
32216;SDS011;67098;51.140;4.088;2023-02-11T02:41:14;18.27;;;7.20;;
32216;SDS011;67098;51.140;4.088;2023-02-11T02:43:44;21.65;;;6.68;;
32216;SDS011;67098;51.140;4.088;2023-02-11T02:46:14;27.13;;;8.18;;
32216;SDS011;67098;51.140;4.088;2023-02-11T02:48:40;25.48;;;8.25;;
32216;SDS011;67098;51.140;4.088;2023-02-11T02:51:22;21.80;;;8.15;;
32216;SDS011;67098;51.140;4.088;2023-02-11T03:02:14;21.98;;;7.10;;
32216;SDS011;67098;51.140;4.088;2023-02-11T03:07:42;23.90;;;7.22;;
32216;SDS011;67098;51.140;4.088;2023-02-11T03:12:56;24.55;;;8.15;;
32216;SDS011;67098;51.140;4.088;2023-02-11T03:15:23;23.35;;;8.23;;
32216;SDS011;67098;51.140;4.088;2023-02-11T03:17:52;24.33;;;8.57;;
32216;SDS011;67098;51.140;4.088;2023-02-11T03:20:21;21.25;;;8.55;;
32216;SDS011;67098;51.140;4.088;2023-02-11T03:25:27;28.05;;;8.98;;
32216;SDS011;67098;51.140;4.088;2023-02-11T03:28:01;21.17;;;8.63;;
32216;SDS011;67098;51.140;4.088;2023-02-11T03:33:13;24.27;;;8.65;;
32216;SDS011;67098;51.140;4.088;2023-02-11T03:35:49;21.65;;;8.82;;
32216;SDS011;67098;51.140;4.088;2023-02-11T03:38:42;25.55;;;9.32;;
32216;SDS011;67098;51.140;4.088;2023-02-11T03:41:11;27.70;;;9.02;;
32216;SDS011;67098;51.140;4.088;2023-02-11T03:43:43;22.67;;;9.30;;
32216;SDS011;67098;51.140;4.088;2023-02-11T03:46:16;22.08;;;9.07;;
32216;SDS011;67098;51.140;4.088;2023-02-11T03:48:47;24.02;;;9.25;;
32216;SDS011;67098;51.140;4.088;2023-02-11T03:53:42;24.33;;;8.90;;
32216;SDS011;67098;51.140;4.088;2023-02-11T03:56:12;31.15;;;9.48;;
32216;SDS011;67098;51.140;4.088;2023-02-11T03:58:43;23.40;;;9.27;;
32216;SDS011;67098;51.140;4.088;2023-02-11T04:01:09;25.35;;;9.95;;
32216;SDS011;67098;51.140;4.088;2023-02-11T04:03:35;26.90;;;9.68;;
32216;SDS011;67098;51.140;4.088;2023-02-11T04:06:01;27.60;;;9.88;;
32216;SDS011;67098;51.140;4.088;2023-02-11T04:08:27;21.85;;;9.73;;
32216;SDS011;67098;51.140;4.088;2023-02-11T04:10:53;32.00;;;10.52;;
32216;SDS011;67098;51.140;4.088;2023-02-11T04:13:18;21.45;;;10.18;;
32216;SDS011;67098;51.140;4.088;2023-02-11T04:15:44;26.33;;;10.35;;
32216;SDS011;67098;51.140;4.088;2023-02-11T04:18:09;30.75;;;10.20;;
32216;SDS011;67098;51.140;4.088;2023-02-11T04:20:35;28.30;;;10.60;;
32216;SDS011;67098;51.140;4.088;2023-02-11T04:23:01;24.08;;;9.95;;
32216;SDS011;67098;51.140;4.088;2023-02-11T04:25:26;22.90;;;10.10;;
32216;SDS011;67098;51.140;4.088;2023-02-11T04:27:52;29.45;;;10.15;;
32216;SDS011;67098;51.140;4.088;2023-02-11T04:30:18;26.65;;;10.15;;
32216;SDS011;67098;51.140;4.088;2023-02-11T04:32:43;27.40;;;10.02;;
32216;SDS011;67098;51.140;4.088;2023-02-11T04:35:09;28.25;;;9.88;;
32216;SDS011;67098;51.140;4.088;2023-02-11T04:37:34;30.90;;;10.48;;
32216;SDS011;67098;51.140;4.088;2023-02-11T04:40:00;28.33;;;10.32;;
32216;SDS011;67098;51.140;4.088;2023-02-11T04:42:26;35.85;;;11.05;;
32216;SDS011;67098;51.140;4.088;2023-02-11T04:44:51;27.42;;;10.85;;
32216;SDS011;67098;51.140;4.088;2023-02-11T04:47:17;28.08;;;9.73;;
32216;SDS011;67098;51.140;4.088;2023-02-11T04:49:43;27.95;;;11.07;;
32216;SDS011;67098;51.140;4.088;2023-02-11T04:52:08;29.08;;;11.05;;
32216;SDS011;67098;51.140;4.088;2023-02-11T04:54:34;22.63;;;10.73;;
32216;SDS011;67098;51.140;4.088;2023-02-11T04:57:00;29.90;;;10.70;;
32216;SDS011;67098;51.140;4.088;2023-02-11T04:59:26;27.85;;;10.27;;
32216;SDS011;67098;51.140;4.088;2023-02-11T05:01:52;23.35;;;10.15;;
32216;SDS011;67098;51.140;4.088;2023-02-11T05:04:17;32.72;;;11.77;;
32216;SDS011;67098;51.140;4.088;2023-02-11T05:06:43;26.42;;;11.35;;
32216;SDS011;67098;51.140;4.088;2023-02-11T05:09:10;25.80;;;12.50;;
32216;SDS011;67098;51.140;4.088;2023-02-11T05:11:37;34.38;;;12.20;;
32216;SDS011;67098;51.140;4.088;2023-02-11T05:14:03;36.08;;;12.55;;
32216;SDS011;67098;51.140;4.088;2023-02-11T05:16:30;40.03;;;12.55;;
32216;SDS011;67098;51.140;4.088;2023-02-11T05:18:55;35.17;;;13.00;;
32216;SDS011;67098;51.140;4.088;2023-02-11T05:21:21;30.58;;;12.43;;
32216;SDS011;67098;51.140;4.088;2023-02-11T05:23:47;28.48;;;11.48;;
32216;SDS011;67098;51.140;4.088;2023-02-11T05:26:13;35.22;;;12.70;;
32216;SDS011;67098;51.140;4.088;2023-02-11T05:28:39;29.23;;;13.25;;
32216;SDS011;67098;51.140;4.088;2023-02-11T05:31:05;32.33;;;13.95;;
32216;SDS011;67098;51.140;4.088;2023-02-11T05:33:31;35.72;;;13.82;;
32216;SDS011;67098;51.140;4.088;2023-02-11T05:36:01;32.00;;;13.73;;
32216;SDS011;67098;51.140;4.088;2023-02-11T05:38:29;35.15;;;13.52;;
32216;SDS011;67098;51.140;4.088;2023-02-11T05:40:55;34.22;;;13.95;;
32216;SDS011;67098;51.140;4.088;2023-02-11T05:43:20;40.95;;;14.95;;
32216;SDS011;67098;51.140;4.088;2023-02-11T05:45:46;33.42;;;14.48;;
32216;SDS011;67098;51.140;4.088;2023-02-11T05:48:12;31.23;;;14.13;;
32216;SDS011;67098;51.140;4.088;2023-02-11T05:50:37;38.60;;;15.30;;
32216;SDS011;67098;51.140;4.088;2023-02-11T05:53:03;38.78;;;14.85;;
32216;SDS011;67098;51.140;4.088;2023-02-11T05:55:29;35.92;;;14.95;;
32216;SDS011;67098;51.140;4.088;2023-02-11T05:57:55;33.35;;;15.32;;
32216;SDS011;67098;51.140;4.088;2023-02-11T06:00:21;47.58;;;15.70;;
32216;SDS011;67098;51.140;4.088;2023-02-11T06:02:47;33.65;;;14.32;;
32216;SDS011;67098;51.140;4.088;2023-02-11T06:05:12;29.85;;;16.02;;
32216;SDS011;67098;51.140;4.088;2023-02-11T06:07:38;35.25;;;15.00;;
32216;SDS011;67098;51.140;4.088;2023-02-11T06:10:04;30.70;;;15.27;;
32216;SDS011;67098;51.140;4.088;2023-02-11T06:12:30;39.13;;;15.52;;
32216;SDS011;67098;51.140;4.088;2023-02-11T06:14:56;40.63;;;15.88;;
32216;SDS011;67098;51.140;4.088;2023-02-11T06:17:22;33.05;;;16.95;;
32216;SDS011;67098;51.140;4.088;2023-02-11T06:19:48;38.58;;;17.15;;
32216;SDS011;67098;51.140;4.088;2023-02-11T06:22:13;37.05;;;16.08;;
32216;SDS011;67098;51.140;4.088;2023-02-11T06:24:39;33.33;;;15.27;;
32216;SDS011;67098;51.140;4.088;2023-02-11T06:27:05;34.75;;;15.57;;
32216;SDS011;67098;51.140;4.088;2023-02-11T06:29:31;39.10;;;16.15;;
32216;SDS011;67098;51.140;4.088;2023-02-11T06:31:56;32.65;;;14.80;;
32216;SDS011;67098;51.140;4.088;2023-02-11T06:34:22;42.42;;;16.42;;
32216;SDS011;67098;51.140;4.088;2023-02-11T06:36:48;37.90;;;16.52;;
32216;SDS011;67098;51.140;4.088;2023-02-11T06:39:13;33.30;;;15.73;;
32216;SDS011;67098;51.140;4.088;2023-02-11T06:41:39;37.63;;;15.93;;
32216;SDS011;67098;51.140;4.088;2023-02-11T06:44:05;42.58;;;16.05;;
32216;SDS011;67098;51.140;4.088;2023-02-11T06:46:31;45.53;;;16.65;;
32216;SDS011;67098;51.140;4.088;2023-02-11T06:48:56;36.95;;;16.70;;
32216;SDS011;67098;51.140;4.088;2023-02-11T06:51:22;45.15;;;19.10;;
32216;SDS011;67098;51.140;4.088;2023-02-11T06:53:47;41.08;;;16.33;;
32216;SDS011;67098;51.140;4.088;2023-02-11T06:56:17;38.08;;;16.92;;
32216;SDS011;67098;51.140;4.088;2023-02-11T06:58:45;37.78;;;16.92;;
32216;SDS011;67098;51.140;4.088;2023-02-11T07:01:12;46.17;;;17.42;;
32216;SDS011;67098;51.140;4.088;2023-02-11T07:03:40;37.35;;;16.58;;
32216;SDS011;67098;51.140;4.088;2023-02-11T07:06:07;37.20;;;17.08;;
32216;SDS011;67098;51.140;4.088;2023-02-11T07:08:37;39.08;;;17.13;;
32216;SDS011;67098;51.140;4.088;2023-02-11T07:11:08;37.55;;;17.38;;
32216;SDS011;67098;51.140;4.088;2023-02-11T07:13:35;37.78;;;17.10;;
32216;SDS011;67098;51.140;4.088;2023-02-11T07:16:05;48.10;;;17.45;;
32216;SDS011;67098;51.140;4.088;2023-02-11T07:18:31;36.75;;;17.33;;
32216;SDS011;67098;51.140;4.088;2023-02-11T07:20:57;46.92;;;17.30;;
32216;SDS011;67098;51.140;4.088;2023-02-11T07:23:22;35.35;;;17.58;;
32216;SDS011;67098;51.140;4.088;2023-02-11T07:25:48;33.90;;;17.30;;
32216;SDS011;67098;51.140;4.088;2023-02-11T07:28:14;38.65;;;17.23;;
32216;SDS011;67098;51.140;4.088;2023-02-11T07:30:39;32.63;;;16.38;;
32216;SDS011;67098;51.140;4.088;2023-02-11T07:33:05;42.15;;;18.20;;
32216;SDS011;67098;51.140;4.088;2023-02-11T07:35:30;36.70;;;18.10;;
32216;SDS011;67098;51.140;4.088;2023-02-11T07:37:56;40.70;;;17.13;;
32216;SDS011;67098;51.140;4.088;2023-02-11T07:40:22;40.63;;;18.70;;
32216;SDS011;67098;51.140;4.088;2023-02-11T07:42:47;40.40;;;19.73;;
32216;SDS011;67098;51.140;4.088;2023-02-11T07:45:13;35.28;;;18.75;;
32216;SDS011;67098;51.140;4.088;2023-02-11T07:47:38;38.78;;;18.98;;
32216;SDS011;67098;51.140;4.088;2023-02-11T07:50:06;46.83;;;19.05;;
32216;SDS011;67098;51.140;4.088;2023-02-11T07:52:33;44.47;;;19.90;;
32216;SDS011;67098;51.140;4.088;2023-02-11T07:54:59;41.10;;;19.65;;
32216;SDS011;67098;51.140;4.088;2023-02-11T07:57:24;47.60;;;19.50;;
32216;SDS011;67098;51.140;4.088;2023-02-11T07:59:50;45.70;;;19.65;;
32216;SDS011;67098;51.140;4.088;2023-02-11T08:02:17;50.58;;;21.33;;
32216;SDS011;67098;51.140;4.088;2023-02-11T08:04:44;52.05;;;21.40;;
32216;SDS011;67098;51.140;4.088;2023-02-11T08:07:13;45.17;;;21.38;;
32216;SDS011;67098;51.140;4.088;2023-02-11T08:09:39;49.50;;;21.73;;
32216;SDS011;67098;51.140;4.088;2023-02-11T08:12:05;52.85;;;23.40;;
32216;SDS011;67098;51.140;4.088;2023-02-11T08:14:31;48.58;;;21.27;;
32216;SDS011;67098;51.140;4.088;2023-02-11T08:16:56;47.40;;;23.63;;
32216;SDS011;67098;51.140;4.088;2023-02-11T08:19:22;48.20;;;21.27;;
32216;SDS011;67098;51.140;4.088;2023-02-11T08:21:48;50.40;;;23.10;;
32216;SDS011;67098;51.140;4.088;2023-02-11T08:24:14;41.03;;;21.13;;
32216;SDS011;67098;51.140;4.088;2023-02-11T08:26:40;45.03;;;23.05;;
32216;SDS011;67098;51.140;4.088;2023-02-11T08:29:10;46.33;;;22.23;;
32216;SDS011;67098;51.140;4.088;2023-02-11T08:31:38;52.53;;;23.55;;
32216;SDS011;67098;51.140;4.088;2023-02-11T08:34:05;45.53;;;21.50;;
32216;SDS011;67098;51.140;4.088;2023-02-11T08:36:32;55.97;;;24.02;;
32216;SDS011;67098;51.140;4.088;2023-02-11T08:39:01;42.25;;;21.88;;
32216;SDS011;67098;51.140;4.088;2023-02-11T08:41:31;48.00;;;22.15;;
32216;SDS011;67098;51.140;4.088;2023-02-11T08:43:58;51.83;;;22.95;;
32216;SDS011;67098;51.140;4.088;2023-02-11T08:46:23;48.33;;;23.02;;
32216;SDS011;67098;51.140;4.088;2023-02-11T08:48:49;47.22;;;22.00;;
32216;SDS011;67098;51.140;4.088;2023-02-11T08:51:19;42.38;;;21.48;;
32216;SDS011;67098;51.140;4.088;2023-02-11T08:53:47;50.22;;;22.27;;
32216;SDS011;67098;51.140;4.088;2023-02-11T08:56:13;50.90;;;24.15;;
32216;SDS011;67098;51.140;4.088;2023-02-11T08:58:40;48.55;;;22.25;;
32216;SDS011;67098;51.140;4.088;2023-02-11T09:01:09;50.15;;;23.02;;
32216;SDS011;67098;51.140;4.088;2023-02-11T09:03:35;47.72;;;22.95;;
32216;SDS011;67098;51.140;4.088;2023-02-11T09:06:03;54.72;;;23.30;;
32216;SDS011;67098;51.140;4.088;2023-02-11T09:08:36;49.45;;;22.40;;
32216;SDS011;67098;51.140;4.088;2023-02-11T09:11:03;55.03;;;23.67;;
32216;SDS011;67098;51.140;4.088;2023-02-11T09:13:29;43.92;;;23.67;;
32216;SDS011;67098;51.140;4.088;2023-02-11T09:15:56;50.08;;;23.17;;
32216;SDS011;67098;51.140;4.088;2023-02-11T09:18:22;56.22;;;24.42;;
32216;SDS011;67098;51.140;4.088;2023-02-11T09:20:48;47.88;;;23.92;;
32216;SDS011;67098;51.140;4.088;2023-02-11T09:23:13;51.35;;;24.35;;
32216;SDS011;67098;51.140;4.088;2023-02-11T09:25:39;50.45;;;24.02;;
32216;SDS011;67098;51.140;4.088;2023-02-11T09:28:05;56.03;;;26.25;;
32216;SDS011;67098;51.140;4.088;2023-02-11T09:30:31;50.58;;;24.55;;
32216;SDS011;67098;51.140;4.088;2023-02-11T09:32:58;52.95;;;22.85;;
32216;SDS011;67098;51.140;4.088;2023-02-11T09:35:24;49.33;;;24.38;;
32216;SDS011;67098;51.140;4.088;2023-02-11T09:37:50;47.13;;;24.58;;
32216;SDS011;67098;51.140;4.088;2023-02-11T09:40:16;55.28;;;25.42;;
32216;SDS011;67098;51.140;4.088;2023-02-11T09:42:45;57.38;;;26.67;;
32216;SDS011;67098;51.140;4.088;2023-02-11T09:45:22;55.00;;;27.92;;
32216;SDS011;67098;51.140;4.088;2023-02-11T09:52:57;61.20;;;28.08;;
32216;SDS011;67098;51.140;4.088;2023-02-11T09:55:37;59.97;;;28.60;;
32216;SDS011;67098;51.140;4.088;2023-02-11T09:58:10;59.97;;;29.33;;
32216;SDS011;67098;51.140;4.088;2023-02-11T10:06:08;57.63;;;28.48;;
32216;SDS011;67098;51.140;4.088;2023-02-11T10:11:35;69.72;;;29.98;;
32216;SDS011;67098;51.140;4.088;2023-02-11T10:14:26;63.80;;;29.20;;
32216;SDS011;67098;51.140;4.088;2023-02-11T10:27:54;67.05;;;30.25;;
32216;SDS011;67098;51.140;4.088;2023-02-11T10:30:33;57.97;;;30.23;;
32216;SDS011;67098;51.140;4.088;2023-02-11T10:33:22;64.72;;;31.27;;
32216;SDS011;67098;51.140;4.088;2023-02-11T10:36:00;66.70;;;32.25;;
32216;SDS011;67098;51.140;4.088;2023-02-11T10:38:28;62.42;;;30.42;;
32216;SDS011;67098;51.140;4.088;2023-02-11T10:40:54;60.35;;;30.48;;
32216;SDS011;67098;51.140;4.088;2023-02-11T10:43:22;61.58;;;29.85;;
32216;SDS011;67098;51.140;4.088;2023-02-11T10:45:51;65.50;;;29.83;;
32216;SDS011;67098;51.140;4.088;2023-02-11T10:51:18;53.75;;;28.40;;
32216;SDS011;67098;51.140;4.088;2023-02-11T10:56:38;57.00;;;28.42;;
32216;SDS011;67098;51.140;4.088;2023-02-11T11:01:52;54.88;;;28.35;;
32216;SDS011;67098;51.140;4.088;2023-02-11T11:04:39;58.70;;;28.23;;
32216;SDS011;67098;51.140;4.088;2023-02-11T11:07:09;55.90;;;27.80;;
32216;SDS011;67098;51.140;4.088;2023-02-11T11:10:00;52.30;;;28.15;;
32216;SDS011;67098;51.140;4.088;2023-02-11T11:12:50;53.88;;;27.98;;
32216;SDS011;67098;51.140;4.088;2023-02-11T11:15:20;53.38;;;28.42;;
32216;SDS011;67098;51.140;4.088;2023-02-11T11:18:08;55.05;;;28.58;;
32216;SDS011;67098;51.140;4.088;2023-02-11T11:20:37;53.08;;;28.35;;
32216;SDS011;67098;51.140;4.088;2023-02-11T11:23:18;55.08;;;28.38;;
32216;SDS011;67098;51.140;4.088;2023-02-11T11:28:51;50.15;;;25.50;;
32216;SDS011;67098;51.140;4.088;2023-02-11T11:31:19;55.70;;;25.30;;
32216;SDS011;67098;51.140;4.088;2023-02-11T11:33:47;53.30;;;25.67;;
32216;SDS011;67098;51.140;4.088;2023-02-11T11:36:21;58.30;;;27.47;;
32216;SDS011;67098;51.140;4.088;2023-02-11T11:38:55;51.38;;;25.90;;
32216;SDS011;67098;51.140;4.088;2023-02-11T11:41:26;46.08;;;25.10;;
32216;SDS011;67098;51.140;4.088;2023-02-11T11:46:45;54.58;;;25.95;;
32216;SDS011;67098;51.140;4.088;2023-02-11T11:49:21;56.50;;;26.33;;
32216;SDS011;67098;51.140;4.088;2023-02-11T11:51:55;50.17;;;25.38;;
32216;SDS011;67098;51.140;4.088;2023-02-11T11:54:29;47.83;;;24.17;;
32216;SDS011;67098;51.140;4.088;2023-02-11T11:56:59;53.97;;;26.77;;
32216;SDS011;67098;51.140;4.088;2023-02-11T11:59:30;52.67;;;25.63;;
32216;SDS011;67098;51.140;4.088;2023-02-11T12:04:37;51.63;;;25.67;;
32216;SDS011;67098;51.140;4.088;2023-02-11T12:13:01;43.40;;;23.95;;
32216;SDS011;67098;51.140;4.088;2023-02-11T12:18:40;44.42;;;23.85;;
32216;SDS011;67098;51.140;4.088;2023-02-11T12:26:51;47.78;;;23.48;;
32216;SDS011;67098;51.140;4.088;2023-02-11T12:29:36;41.50;;;22.70;;
32216;SDS011;67098;51.140;4.088;2023-02-11T12:37:57;44.53;;;22.65;;
32216;SDS011;67098;51.140;4.088;2023-02-11T12:40:39;41.17;;;22.63;;
32216;SDS011;67098;51.140;4.088;2023-02-11T12:43:36;43.13;;;22.83;;
32216;SDS011;67098;51.140;4.088;2023-02-11T12:48:38;45.45;;;24.02;;
32216;SDS011;67098;51.140;4.088;2023-02-11T12:53:59;49.40;;;23.98;;
32216;SDS011;67098;51.140;4.088;2023-02-11T13:08:24;46.38;;;23.98;;
32216;SDS011;67098;51.140;4.088;2023-02-11T13:10:53;47.72;;;24.77;;
32216;SDS011;67098;51.140;4.088;2023-02-11T13:13:26;47.63;;;24.40;;
32216;SDS011;67098;51.140;4.088;2023-02-11T13:16:01;49.50;;;26.20;;
32216;SDS011;67098;51.140;4.088;2023-02-11T13:18:34;50.17;;;26.23;;
32216;SDS011;67098;51.140;4.088;2023-02-11T13:26:38;51.45;;;24.75;;
32216;SDS011;67098;51.140;4.088;2023-02-11T13:32:06;50.15;;;24.63;;
32216;SDS011;67098;51.140;4.088;2023-02-11T13:37:12;49.58;;;25.52;;
32216;SDS011;67098;51.140;4.088;2023-02-11T13:40:01;50.63;;;26.23;;
32216;SDS011;67098;51.140;4.088;2023-02-11T13:42:29;54.00;;;25.95;;
32216;SDS011;67098;51.140;4.088;2023-02-11T13:44:57;46.97;;;25.38;;
32216;SDS011;67098;51.140;4.088;2023-02-11T13:47:40;54.05;;;25.25;;
32216;SDS011;67098;51.140;4.088;2023-02-11T13:50:06;46.78;;;25.38;;
32216;SDS011;67098;51.140;4.088;2023-02-11T13:52:45;56.90;;;26.48;;
32216;SDS011;67098;51.140;4.088;2023-02-11T13:58:14;50.92;;;25.23;;
32216;SDS011;67098;51.140;4.088;2023-02-11T14:19:36;54.15;;;27.10;;
32216;SDS011;67098;51.140;4.088;2023-02-11T14:22:13;51.55;;;27.38;;
32216;SDS011;67098;51.140;4.088;2023-02-11T14:27:15;58.13;;;28.80;;
32216;SDS011;67098;51.140;4.088;2023-02-11T14:32:49;51.17;;;26.10;;
32216;SDS011;67098;51.140;4.088;2023-02-11T14:41:38;49.55;;;24.92;;
32216;SDS011;67098;51.140;4.088;2023-02-11T14:43:39;50.05;;;26.08;;
32216;SDS011;67098;51.140;4.088;2023-02-11T14:46:09;53.60;;;26.15;;
32216;SDS011;67098;51.140;4.088;2023-02-11T14:48:36;51.72;;;26.98;;
32216;SDS011;67098;51.140;4.088;2023-02-11T14:56:00;48.17;;;24.75;;
32216;SDS011;67098;51.140;4.088;2023-02-11T14:58:27;44.65;;;22.85;;
32216;SDS011;67098;51.140;4.088;2023-02-11T15:01:00;49.67;;;24.50;;
32216;SDS011;67098;51.140;4.088;2023-02-11T15:08:33;48.93;;;24.00;;
32216;SDS011;67098;51.140;4.088;2023-02-11T15:11:02;51.53;;;25.10;;
32216;SDS011;67098;51.140;4.088;2023-02-11T15:13:31;52.22;;;24.85;;
32216;SDS011;67098;51.140;4.088;2023-02-11T15:16:05;50.60;;;24.55;;
32216;SDS011;67098;51.140;4.088;2023-02-11T15:18:36;47.97;;;24.40;;
32216;SDS011;67098;51.140;4.088;2023-02-11T15:21:05;48.75;;;24.38;;
32216;SDS011;67098;51.140;4.088;2023-02-11T15:23:32;51.83;;;25.60;;
32216;SDS011;67098;51.140;4.088;2023-02-11T15:25:58;46.95;;;24.27;;
32216;SDS011;67098;51.140;4.088;2023-02-11T15:28:30;38.83;;;23.73;;
32216;SDS011;67098;51.140;4.088;2023-02-11T15:31:13;48.40;;;24.45;;
32216;SDS011;67098;51.140;4.088;2023-02-11T15:33:40;51.90;;;25.55;;
32216;SDS011;67098;51.140;4.088;2023-02-11T15:36:08;44.35;;;23.52;;
32216;SDS011;67098;51.140;4.088;2023-02-11T15:38:36;43.53;;;23.52;;
32216;SDS011;67098;51.140;4.088;2023-02-11T15:41:02;45.95;;;23.40;;
32216;SDS011;67098;51.140;4.088;2023-02-11T15:46:10;40.72;;;22.23;;
32216;SDS011;67098;51.140;4.088;2023-02-11T15:48:42;47.35;;;23.58;;
32216;SDS011;67098;51.140;4.088;2023-02-11T15:53:55;51.00;;;24.65;;
32216;SDS011;67098;51.140;4.088;2023-02-11T15:58:57;47.80;;;24.75;;
32216;SDS011;67098;51.140;4.088;2023-02-11T16:01:34;50.22;;;24.60;;
32216;SDS011;67098;51.140;4.088;2023-02-11T16:04:01;47.58;;;24.20;;
32216;SDS011;67098;51.140;4.088;2023-02-11T16:06:36;46.28;;;24.23;;
32216;SDS011;67098;51.140;4.088;2023-02-11T16:11:35;43.25;;;23.67;;
32216;SDS011;67098;51.140;4.088;2023-02-11T16:17:11;50.75;;;24.55;;
32216;SDS011;67098;51.140;4.088;2023-02-11T16:19:44;49.55;;;24.75;;
32216;SDS011;67098;51.140;4.088;2023-02-11T16:22:16;47.28;;;24.38;;
32216;SDS011;67098;51.140;4.088;2023-02-11T16:24:45;49.03;;;24.85;;
32216;SDS011;67098;51.140;4.088;2023-02-11T16:27:22;48.75;;;24.02;;
32216;SDS011;67098;51.140;4.088;2023-02-11T16:29:52;51.63;;;24.02;;
32216;SDS011;67098;51.140;4.088;2023-02-11T16:32:25;51.05;;;25.25;;
32216;SDS011;67098;51.140;4.088;2023-02-11T16:34:52;47.05;;;23.20;;
32216;SDS011;67098;51.140;4.088;2023-02-11T16:37:21;54.38;;;25.13;;
32216;SDS011;67098;51.140;4.088;2023-02-11T16:39:48;49.30;;;24.90;;
32216;SDS011;67098;51.140;4.088;2023-02-11T16:42:13;45.78;;;24.50;;
32216;SDS011;67098;51.140;4.088;2023-02-11T16:44:39;44.83;;;23.33;;
32216;SDS011;67098;51.140;4.088;2023-02-11T16:47:06;46.95;;;23.23;;
32216;SDS011;67098;51.140;4.088;2023-02-11T16:49:39;48.35;;;23.52;;
32216;SDS011;67098;51.140;4.088;2023-02-11T16:52:07;48.22;;;24.80;;
32216;SDS011;67098;51.140;4.088;2023-02-11T16:54:37;47.78;;;21.75;;
32216;SDS011;67098;51.140;4.088;2023-02-11T16:57:13;51.38;;;23.08;;
32216;SDS011;67098;51.140;4.088;2023-02-11T16:59:40;49.65;;;25.25;;
32216;SDS011;67098;51.140;4.088;2023-02-11T17:02:09;51.45;;;24.48;;
32216;SDS011;67098;51.140;4.088;2023-02-11T17:04:51;50.38;;;24.33;;
32216;SDS011;67098;51.140;4.088;2023-02-11T17:07:18;53.88;;;27.30;;
32216;SDS011;67098;51.140;4.088;2023-02-11T17:09:44;56.60;;;28.02;;
32216;SDS011;67098;51.140;4.088;2023-02-11T17:12:10;53.63;;;27.40;;
32216;SDS011;67098;51.140;4.088;2023-02-11T17:14:35;57.08;;;28.88;;
32216;SDS011;67098;51.140;4.088;2023-02-11T17:17:01;50.75;;;27.85;;
32216;SDS011;67098;51.140;4.088;2023-02-11T17:19:26;42.25;;;24.92;;
32216;SDS011;67098;51.140;4.088;2023-02-11T17:21:52;52.30;;;24.80;;
32216;SDS011;67098;51.140;4.088;2023-02-11T17:24:18;53.40;;;24.30;;
32216;SDS011;67098;51.140;4.088;2023-02-11T17:26:45;48.40;;;24.60;;
32216;SDS011;67098;51.140;4.088;2023-02-11T17:29:13;52.05;;;24.73;;
32216;SDS011;67098;51.140;4.088;2023-02-11T17:31:40;48.90;;;24.88;;
32216;SDS011;67098;51.140;4.088;2023-02-11T17:34:06;50.38;;;26.00;;
32216;SDS011;67098;51.140;4.088;2023-02-11T17:36:32;48.45;;;24.15;;
32216;SDS011;67098;51.140;4.088;2023-02-11T17:38:58;52.47;;;26.33;;
32216;SDS011;67098;51.140;4.088;2023-02-11T17:41:25;62.00;;;27.25;;
32216;SDS011;67098;51.140;4.088;2023-02-11T17:43:51;52.10;;;26.33;;
32216;SDS011;67098;51.140;4.088;2023-02-11T17:46:17;53.97;;;25.95;;
32216;SDS011;67098;51.140;4.088;2023-02-11T17:48:43;51.50;;;24.45;;